Time;durP1;ratioP1;P1;durP2;ratioP2;P2;SDS_P1;SDS_P2;PMS_P1;PMS_P2;Temp;Humidity;BMP_temperature;BMP_pressure;BME280_temperature;BME280_humidity;BME280_pressure;Samples;Min_cycle;Max_cycle;Signal;HPM_P1;HPM_P2
2021/12/04 00:00:47;;;;;;;35.80;17.00;;;28.60;84.00;;;;;;5066265;28;20037;-54
2021/12/04 00:03:14;;;;;;;31.63;16.17;;;28.60;83.90;;;;;;5066451;28;20251;-56
2021/12/04 00:05:46;;;;;;;30.35;17.33;;;28.50;83.90;;;;;;5066027;28;20232;-54
2021/12/04 00:08:13;;;;;;;31.52;16.48;;;28.50;83.50;;;;;;5066609;28;20044;-58
2021/12/04 00:10:40;;;;;;;34.45;15.68;;;28.60;83.40;;;;;;5066047;28;20060;-58
2021/12/04 00:13:07;;;;;;;25.27;14.40;;;28.50;82.80;;;;;;5066419;28;20032;-55
2021/12/04 00:15:33;;;;;;;24.35;14.20;;;28.50;82.80;;;;;;5065442;28;20024;-55
2021/12/04 00:18:00;;;;;;;23.83;12.35;;;28.50;82.40;;;;;;5066118;28;20033;-55
2021/12/04 00:20:30;;;;;;;29.13;11.60;;;28.50;82.30;;;;;;5065443;28;20082;-53
2021/12/04 00:22:59;;;;;;;19.60;10.43;;;28.50;82.30;;;;;;5066215;28;20092;-51
2021/12/04 00:25:27;;;;;;;22.30;10.20;;;28.50;82.10;;;;;;5065779;28;20305;-55
2021/12/04 00:27:54;;;;;;;18.52;9.77;;;28.50;82.00;;;;;;5065973;28;20029;-53
2021/12/04 00:30:21;;;;;;;20.90;10.30;;;28.50;81.80;;;;;;5065755;28;20017;-51
2021/12/04 00:32:57;;;;;;;19.20;9.60;;;28.50;81.40;;;;;;5065955;28;20028;-52
2021/12/04 00:49:05;;;;;;;18.00;7.20;;;28.40;81.40;;;;;;5064366;28;20024;-51
2021/12/04 00:49:15;;;;;;;13.48;6.30;;;28.40;81.40;;;;;;5065108;28;20063;-52
2021/12/04 00:51:56;;;;;;;10.68;6.00;;;28.40;81.30;;;;;;5065399;28;20193;-53
2021/12/04 00:54:26;;;;;;;11.98;5.20;;;28.30;80.90;;;;;;5065218;28;20329;-57
2021/12/04 00:56:53;;;;;;;11.55;5.35;;;28.30;81.00;;;;;;5065155;28;20130;-53
2021/12/04 00:59:20;;;;;;;11.15;5.30;;;28.30;81.00;;;;;;5064845;28;20041;-53
2021/12/04 01:01:47;;;;;;;11.43;4.50;;;28.30;81.00;;;;;;5065348;28;20033;-51
2021/12/04 01:04:16;;;;;;;11.98;4.75;;;28.30;80.80;;;;;;5064979;28;20021;-52
2021/12/04 01:06:44;;;;;;;13.57;4.32;;;28.30;80.80;;;;;;5064950;28;20213;-56
2021/12/04 01:09:12;;;;;;;9.25;4.25;;;28.30;81.20;;;;;;5064926;28;20025;-59
2021/12/04 01:11:40;;;;;;;11.40;4.57;;;28.30;80.50;;;;;;5065084;28;20071;-51
2021/12/04 01:14:09;;;;;;;11.32;5.00;;;28.20;80.40;;;;;;5064602;28;20044;-51
2021/12/04 01:16:35;;;;;;;13.65;5.70;;;28.30;80.40;;;;;;5063469;28;20037;-51
2021/12/04 01:19:03;;;;;;;15.43;5.88;;;28.30;80.30;;;;;;5064685;28;20084;-53
2021/12/04 01:21:29;;;;;;;15.85;6.32;;;28.20;80.20;;;;;;5064730;28;20091;-51
2021/12/04 01:23:56;;;;;;;19.27;6.53;;;28.20;80.20;;;;;;5064748;28;20021;-51
2021/12/04 01:26:23;;;;;;;15.60;7.72;;;28.20;80.30;;;;;;5064754;28;20078;-54
2021/12/04 01:28:50;;;;;;;17.50;9.25;;;28.20;80.10;;;;;;5064370;28;20301;-52
2021/12/04 01:31:17;;;;;;;19.63;11.05;;;28.20;80.30;;;;;;5064419;28;20029;-54
2021/12/04 01:33:44;;;;;;;21.80;11.38;;;28.20;80.30;;;;;;5064563;28;20020;-55
2021/12/04 01:36:10;;;;;;;24.40;14.65;;;28.20;80.30;;;;;;5064386;28;20051;-54
2021/12/04 01:38:37;;;;;;;19.60;10.13;;;28.20;80.40;;;;;;5064438;28;20069;-51
2021/12/04 01:41:05;;;;;;;25.10;11.68;;;28.10;80.20;;;;;;5064179;28;20024;-51
2021/12/04 01:43:32;;;;;;;16.52;9.95;;;28.10;80.30;;;;;;5064424;28;20013;-54
2021/12/04 01:45:59;;;;;;;18.38;9.57;;;28.10;80.40;;;;;;5064274;28;20024;-54
2021/12/04 01:48:26;;;;;;;17.10;9.15;;;28.10;80.20;;;;;;5064249;28;20020;-52
2021/12/04 01:50:55;;;;;;;16.70;8.60;;;28.10;80.20;;;;;;5064086;28;20095;-53
2021/12/04 01:53:22;;;;;;;17.77;8.18;;;28.10;80.20;;;;;;5064229;28;20033;-51
2021/12/04 01:55:55;;;;;;;17.42;7.15;;;28.10;80.40;;;;;;5064342;28;20048;-52
2021/12/04 01:58:22;;;;;;;17.13;7.63;;;28.10;80.40;;;;;;5064079;28;20078;-53
2021/12/04 02:00:50;;;;;;;13.95;7.60;;;28.10;80.30;;;;;;5064037;28;20028;-51
2021/12/04 02:03:18;;;;;;;13.68;8.02;;;28.10;80.30;;;;;;5063885;28;20071;-52
2021/12/04 02:05:46;;;;;;;14.45;7.57;;;28.00;80.20;;;;;;5063763;28;20243;-52
2021/12/04 02:08:16;;;;;;;16.02;8.10;;;28.00;80.40;;;;;;5064411;28;20021;-58
2021/12/04 02:10:44;;;;;;;16.25;7.85;;;28.00;80.30;;;;;;5063752;28;20363;-52
2021/12/04 02:13:11;;;;;;;17.90;7.78;;;28.00;80.20;;;;;;5063985;28;20033;-52
2021/12/04 02:15:37;;;;;;;17.88;7.95;;;28.00;80.20;;;;;;5063728;28;20016;-51
2021/12/04 02:18:06;;;;;;;16.38;8.27;;;28.00;80.20;;;;;;5064239;28;20306;-51
2021/12/04 02:20:34;;;;;;;15.05;8.85;;;28.00;80.20;;;;;;5063337;28;20074;-54
2021/12/04 02:23:05;;;;;;;15.77;8.48;;;28.00;80.20;;;;;;5064091;28;20028;-55
2021/12/04 02:25:32;;;;;;;13.32;8.13;;;27.90;80.00;;;;;;5063501;28;20024;-51
2021/12/04 02:28:00;;;;;;;16.65;7.57;;;27.90;79.90;;;;;;5063975;28;20028;-53
2021/12/04 02:30:30;;;;;;;17.45;8.07;;;27.90;79.90;;;;;;5063923;28;20021;-52
2021/12/04 02:32:57;;;;;;;15.20;7.20;;;28.00;80.00;;;;;;5064007;28;20064;-51
2021/12/04 02:35:25;;;;;;;16.92;7.53;;;27.90;79.80;;;;;;5061211;28;20025;-53
2021/12/04 02:37:53;;;;;;;16.40;7.50;;;27.90;79.70;;;;;;5063990;28;20095;-53
2021/12/04 02:40:23;;;;;;;20.35;6.88;;;27.90;79.80;;;;;;5063620;28;20092;-53
2021/12/04 02:42:51;;;;;;;14.15;6.65;;;27.90;79.70;;;;;;5064086;28;20044;-51
2021/12/04 02:45:18;;;;;;;15.57;6.78;;;27.90;79.60;;;;;;5063420;28;20041;-55
2021/12/04 02:47:45;;;;;;;18.92;7.07;;;27.90;79.40;;;;;;5063089;28;20028;-56
2021/12/04 02:50:13;;;;;;;18.20;6.75;;;27.90;79.50;;;;;;5061820;28;20333;-53
2021/12/04 02:52:40;;;;;;;15.85;6.47;;;27.90;79.50;;;;;;5062004;28;20039;-59
2021/12/04 02:55:08;;;;;;;14.52;7.53;;;27.90;79.10;;;;;;5061653;28;20020;-55
2021/12/04 02:57:38;;;;;;;18.13;8.95;;;27.80;79.20;;;;;;5062088;28;20040;-56
2021/12/04 03:00:06;;;;;;;20.85;10.80;;;27.80;79.20;;;;;;5061436;28;20080;-54
2021/12/04 03:02:32;;;;;;;20.30;8.35;;;27.80;79.40;;;;;;5061670;28;20092;-56
2021/12/04 03:05:02;;;;;;;15.82;7.03;;;27.80;79.10;;;;;;5063323;28;20039;-54
2021/12/04 03:07:29;;;;;;;14.13;6.95;;;27.80;79.10;;;;;;5063335;28;20092;-57
2021/12/04 03:09:55;;;;;;;11.88;6.07;;;27.80;79.00;;;;;;5063145;28;20239;-55
2021/12/04 03:12:23;;;;;;;9.18;5.45;;;27.80;79.10;;;;;;5063150;28;20059;-58
2021/12/04 03:14:51;;;;;;;12.32;5.28;;;27.80;79.10;;;;;;5062191;28;20190;-56
2021/12/04 03:17:20;;;;;;;11.65;4.93;;;27.80;79.20;;;;;;5063336;28;20067;-53
2021/12/04 03:19:50;;;;;;;10.82;4.38;;;27.80;79.00;;;;;;5062293;28;20016;-55
2021/12/04 03:22:18;;;;;;;8.93;4.28;;;27.80;79.00;;;;;;5063304;28;20260;-54
2021/12/04 03:24:45;;;;;;;11.63;3.95;;;27.80;79.10;;;;;;5062975;28;20017;-56
2021/12/04 03:27:13;;;;;;;13.63;3.53;;;27.80;78.90;;;;;;5062872;28;20092;-53
2021/12/04 03:29:56;;;;;;;9.45;3.63;;;27.80;79.00;;;;;;5062889;28;20029;-55
2021/12/04 03:43:11;;;;;;;8.75;3.13;;;27.70;78.60;;;;;;5067082;28;20013;-54
2021/12/04 03:45:41;;;;;;;8.05;3.47;;;27.70;78.60;;;;;;5066555;28;20020;-56
2021/12/04 03:48:12;;;;;;;8.48;3.40;;;27.70;78.50;;;;;;5066896;28;20104;-53
2021/12/04 03:50:38;;;;;;;9.25;3.53;;;27.70;78.60;;;;;;5065374;28;20017;-57
2021/12/04 03:53:05;;;;;;;10.48;3.42;;;27.70;78.60;;;;;;5064974;28;20062;-61
2021/12/04 03:55:33;;;;;;;13.45;3.13;;;27.70;78.60;;;;;;5064528;28;20028;-53
2021/12/04 03:57:59;;;;;;;6.38;2.90;;;27.60;78.40;;;;;;5064364;28;20033;-53
2021/12/04 04:00:28;;;;;;;9.43;2.90;;;27.70;78.40;;;;;;5063920;28;20106;-56
2021/12/04 04:02:58;;;;;;;10.10;3.35;;;27.70;78.30;;;;;;5064214;28;20335;-60
2021/12/04 04:05:25;;;;;;;7.30;3.05;;;27.70;78.30;;;;;;5064209;28;20024;-54
2021/12/04 04:07:51;;;;;;;10.25;2.88;;;27.60;78.40;;;;;;5064556;28;20044;-56
2021/12/04 04:10:20;;;;;;;7.45;2.92;;;27.60;78.40;;;;;;5064056;28;20098;-58
2021/12/04 04:12:46;;;;;;;9.23;3.10;;;27.60;78.30;;;;;;5064101;28;20032;-53
2021/12/04 04:15:13;;;;;;;11.77;3.33;;;27.60;78.30;;;;;;5064060;28;20029;-57
2021/12/04 04:17:42;;;;;;;8.32;2.85;;;27.60;78.20;;;;;;5064576;28;20028;-53
2021/12/04 04:20:14;;;;;;;9.02;2.90;;;27.60;78.10;;;;;;5064504;28;20032;-54
2021/12/04 04:22:42;;;;;;;5.05;2.83;;;27.60;78.00;;;;;;5066047;28;20020;-53
2021/12/04 04:25:10;;;;;;;8.05;2.78;;;27.60;77.90;;;;;;5064621;28;20025;-52
2021/12/04 04:27:37;;;;;;;5.45;2.70;;;27.60;77.80;;;;;;5066077;28;20090;-51
2021/12/04 04:30:10;;;;;;;10.18;2.92;;;27.60;78.20;;;;;;5065345;28;20325;-54
2021/12/04 04:32:37;;;;;;;6.00;2.70;;;27.60;77.70;;;;;;5065986;28;20355;-55
2021/12/04 04:35:57;;;;;;;7.10;2.75;;;27.50;77.70;;;;;;5065505;28;20021;-57
2021/12/04 04:38:14;;;;;;;5.78;2.70;;;27.50;78.00;;;;;;5057877;28;20060;-51
2021/12/04 04:58:25;;;;;;;7.05;2.92;;;27.40;77.00;;;;;;5065356;28;20036;-55
2021/12/04 05:13:21;;;;;;;8.05;3.08;;;27.30;76.50;;;;;;5065179;28;20096;-52
2021/12/04 05:21:03;;;;;;;10.13;3.20;;;27.30;76.40;;;;;;5064659;28;20023;-52
2021/12/04 05:23:31;;;;;;;11.02;2.60;;;27.20;76.20;;;;;;5064598;28;20036;-55
2021/12/04 05:25:58;;;;;;;8.07;2.72;;;27.30;76.20;;;;;;5064709;28;20098;-55
2021/12/04 05:28:26;;;;;;;8.07;2.95;;;27.30;76.30;;;;;;5064883;28;20056;-54
2021/12/04 05:30:52;;;;;;;5.28;2.28;;;27.30;76.30;;;;;;5064327;28;20025;-56
2021/12/04 05:33:19;;;;;;;4.88;2.25;;;27.20;76.30;;;;;;5064598;28;20029;-56
2021/12/04 05:35:48;;;;;;;5.35;2.80;;;27.20;76.40;;;;;;5064442;28;20031;-55
2021/12/04 05:38:18;;;;;;;8.70;2.80;;;27.20;76.30;;;;;;5064819;28;20043;-56
2021/12/04 05:40:45;;;;;;;6.30;2.70;;;27.20;76.30;;;;;;5064482;28;20337;-53
2021/12/04 05:43:13;;;;;;;6.35;2.63;;;27.20;76.50;;;;;;5064371;28;20051;-54
2021/12/04 05:45:48;;;;;;;9.90;2.55;;;27.20;76.50;;;;;;5064207;28;20021;-53
2021/12/04 05:51:17;;;;;;;5.07;2.40;;;27.20;76.40;;;;;;5064264;28;20021;-55
2021/12/04 05:53:57;;;;;;;9.07;2.55;;;27.20;76.50;;;;;;5064119;28;20067;-57
2021/12/04 05:56:25;;;;;;;8.27;2.85;;;27.20;76.50;;;;;;5064150;28;20232;-52
2021/12/04 05:58:52;;;;;;;6.97;2.47;;;27.10;76.50;;;;;;5064025;28;20043;-53
2021/12/04 06:01:19;;;;;;;6.78;2.13;;;27.10;76.20;;;;;;5063652;28;20333;-51
2021/12/04 06:03:47;;;;;;;5.47;2.05;;;27.10;76.30;;;;;;5064210;28;20082;-51
2021/12/04 06:06:13;;;;;;;5.03;2.55;;;27.10;76.20;;;;;;5064034;28;20029;-52
2021/12/04 06:08:41;;;;;;;7.03;2.63;;;27.10;76.20;;;;;;5063815;28;20025;-55
2021/12/04 06:11:08;;;;;;;6.85;2.40;;;27.10;76.20;;;;;;5063749;28;20252;-52
2021/12/04 06:13:35;;;;;;;8.07;2.80;;;27.10;76.20;;;;;;5063869;28;20028;-52
2021/12/04 06:16:02;;;;;;;8.40;2.50;;;27.10;76.20;;;;;;5063797;28;20016;-56
2021/12/04 06:18:29;;;;;;;5.00;2.45;;;27.00;76.20;;;;;;5063769;28;20021;-54
2021/12/04 06:23:41;;;;;;;6.18;2.30;;;27.00;76.20;;;;;;5063712;28;20059;-51
2021/12/04 06:26:09;;;;;;;5.55;2.30;;;27.00;76.30;;;;;;5063731;28;20013;-52
2021/12/04 06:28:36;;;;;;;7.63;2.30;;;27.00;76.20;;;;;;5063705;28;20025;-53
2021/12/04 06:31:03;;;;;;;5.82;2.42;;;27.00;76.20;;;;;;5063641;28;20027;-52
2021/12/04 06:33:30;;;;;;;8.60;2.15;;;27.00;76.30;;;;;;5063814;28;20055;-51
2021/12/04 06:35:57;;;;;;;5.75;2.35;;;27.00;76.30;;;;;;5063668;28;20020;-53
2021/12/04 06:38:24;;;;;;;9.45;2.53;;;26.90;76.30;;;;;;5063472;28;20055;-52
2021/12/04 06:40:51;;;;;;;6.15;2.42;;;27.00;76.30;;;;;;5063585;28;20306;-52
2021/12/04 06:43:18;;;;;;;6.88;2.58;;;26.90;76.30;;;;;;5063604;28;20044;-54
2021/12/04 06:45:50;;;;;;;5.35;2.05;;;26.90;76.20;;;;;;5063471;28;20013;-52
2021/12/04 06:48:22;;;;;;;5.68;2.30;;;26.90;76.20;;;;;;5063395;28;20029;-53
2021/12/04 06:50:57;;;;;;;7.97;2.13;;;26.90;75.80;;;;;;5063659;28;20021;-54
2021/12/04 06:53:37;;;;;;;5.75;2.53;;;26.90;75.80;;;;;;5063443;28;20032;-52
2021/12/04 06:56:07;;;;;;;5.78;2.78;;;26.90;75.80;;;;;;5063379;28;20029;-53
2021/12/04 06:58:35;;;;;;;6.05;2.30;;;26.90;75.70;;;;;;5063548;28;20025;-52
2021/12/04 07:01:03;;;;;;;6.50;2.63;;;26.90;75.80;;;;;;5063284;28;20344;-52
2021/12/04 07:03:30;;;;;;;7.13;2.85;;;26.90;75.80;;;;;;5063601;28;20221;-53
2021/12/04 07:05:56;;;;;;;5.68;2.30;;;26.90;75.90;;;;;;5063477;28;20020;-51
2021/12/04 07:08:23;;;;;;;10.18;2.70;;;26.90;76.00;;;;;;5063396;28;20020;-56
2021/12/04 07:10:50;;;;;;;6.47;2.50;;;26.90;76.30;;;;;;5063523;28;20032;-54
2021/12/04 07:13:17;;;;;;;7.70;2.33;;;26.90;76.20;;;;;;5063888;28;20033;-50
2021/12/04 07:15:45;;;;;;;6.78;2.80;;;26.80;76.30;;;;;;5067162;28;20024;-52
2021/12/04 07:18:13;;;;;;;6.70;2.40;;;26.80;76.40;;;;;;5067603;28;20027;-51
2021/12/04 07:20:40;;;;;;;7.20;2.28;;;26.80;76.20;;;;;;5067038;28;20040;-51
2021/12/04 07:23:06;;;;;;;6.28;2.40;;;26.80;76.10;;;;;;5067568;28;20021;-52
2021/12/04 07:25:33;;;;;;;4.95;2.17;;;26.80;75.90;;;;;;5067103;28;20025;-51
2021/12/04 07:27:59;;;;;;;8.82;2.45;;;26.80;75.70;;;;;;5067348;28;20025;-53
2021/12/04 07:30:26;;;;;;;5.50;2.20;;;26.80;75.70;;;;;;5066987;28;20324;-53
2021/12/04 07:32:53;;;;;;;10.30;2.20;;;26.80;75.70;;;;;;5067322;28;20060;-51
2021/12/04 07:35:20;;;;;;;6.28;2.58;;;26.80;75.70;;;;;;5066794;28;20372;-52
2021/12/04 07:37:47;;;;;;;9.23;2.60;;;26.80;75.70;;;;;;5067272;28;20029;-52
2021/12/04 07:40:14;;;;;;;9.00;2.58;;;26.80;75.80;;;;;;5066677;28;20029;-51
2021/12/04 07:42:40;;;;;;;7.30;2.40;;;26.70;75.90;;;;;;5067019;28;20021;-53
2021/12/04 07:45:07;;;;;;;3.95;2.10;;;26.70;75.90;;;;;;5066665;28;20017;-53
2021/12/04 07:47:34;;;;;;;6.82;2.47;;;26.70;76.10;;;;;;5066864;28;20075;-52
2021/12/04 07:50:02;;;;;;;6.78;2.95;;;26.70;76.10;;;;;;5066362;28;20021;-51
2021/12/04 07:52:29;;;;;;;5.38;2.40;;;26.70;76.10;;;;;;5066380;28;20067;-50
2021/12/04 07:54:56;;;;;;;6.63;2.60;;;26.70;76.30;;;;;;5066548;28;20027;-52
2021/12/04 07:57:23;;;;;;;5.93;2.33;;;26.70;76.30;;;;;;5066603;28;20297;-52
2021/12/04 07:59:49;;;;;;;8.80;2.60;;;26.70;76.10;;;;;;5066138;28;20053;-54
2021/12/04 08:02:16;;;;;;;5.80;2.10;;;26.70;76.30;;;;;;5066552;28;20025;-52
2021/12/04 08:04:43;;;;;;;6.18;2.60;;;26.70;76.30;;;;;;5066197;28;20017;-50
2021/12/04 08:07:09;;;;;;;6.68;2.58;;;26.70;76.60;;;;;;5066579;28;20100;-51
2021/12/04 08:09:36;;;;;;;9.20;2.58;;;26.70;76.40;;;;;;5066302;28;20032;-52
2021/12/04 08:12:03;;;;;;;5.88;2.60;;;26.60;76.30;;;;;;5066026;28;20094;-51
2021/12/04 08:14:29;;;;;;;3.55;2.10;;;26.60;76.30;;;;;;5066191;28;20088;-54
2021/12/04 08:16:56;;;;;;;5.20;2.50;;;26.60;76.60;;;;;;5066298;28;20048;-52
2021/12/04 08:19:23;;;;;;;5.57;2.10;;;26.60;76.60;;;;;;5065870;28;20029;-51
2021/12/04 08:21:49;;;;;;;8.80;2.67;;;26.60;76.60;;;;;;5066095;28;20025;-50
2021/12/04 08:24:16;;;;;;;6.00;2.50;;;26.60;76.80;;;;;;5065813;28;20017;-51
2021/12/04 08:26:44;;;;;;;5.47;2.38;;;26.60;77.10;;;;;;5065843;28;20025;-51
2021/12/04 08:29:11;;;;;;;6.47;2.28;;;26.60;77.10;;;;;;5065770;28;20032;-52
2021/12/04 08:31:37;;;;;;;12.82;2.50;;;26.60;77.10;;;;;;5065931;28;20025;-51
2021/12/04 08:34:04;;;;;;;6.97;2.38;;;26.60;77.10;;;;;;5065541;28;20017;-51
2021/12/04 08:36:32;;;;;;;6.13;2.40;;;26.50;77.00;;;;;;5065761;28;20021;-51
2021/12/04 08:39:02;;;;;;;4.35;1.98;;;26.50;77.00;;;;;;5065549;28;20017;-52
2021/12/04 08:41:29;;;;;;;4.25;1.98;;;26.50;76.70;;;;;;5065591;28;20029;-51
2021/12/04 08:43:56;;;;;;;10.40;2.20;;;26.50;76.50;;;;;;5065572;28;20017;-54
2021/12/04 08:46:23;;;;;;;6.40;2.28;;;26.50;76.40;;;;;;5065579;28;20320;-52
2021/12/04 08:48:52;;;;;;;7.40;2.13;;;26.50;76.40;;;;;;5065279;28;20153;-51
2021/12/04 08:51:21;;;;;;;4.90;2.03;;;26.50;76.00;;;;;;5065391;28;20150;-51
2021/12/04 08:53:50;;;;;;;8.23;2.20;;;26.50;75.80;;;;;;5065582;28;20024;-56
2021/12/04 08:56:17;;;;;;;6.43;2.17;;;26.50;75.70;;;;;;5065154;28;20036;-52
2021/12/04 08:58:44;;;;;;;7.55;2.47;;;26.40;75.20;;;;;;5065131;28;20117;-53
2021/12/04 09:01:22;;;;;;;3.97;1.90;;;26.50;75.20;;;;;;5065130;28;20149;-53
2021/12/04 09:03:49;;;;;;;5.15;2.08;;;26.40;75.10;;;;;;5065102;28;20028;-54
2021/12/04 09:06:19;;;;;;;7.28;2.00;;;26.40;75.30;;;;;;5065429;28;20131;-49
2021/12/04 09:08:46;;;;;;;4.93;2.10;;;26.40;75.40;;;;;;5064933;28;20043;-55
2021/12/04 09:11:17;;;;;;;8.55;2.13;;;26.40;75.60;;;;;;5065106;28;20123;-52
2021/12/04 09:13:45;;;;;;;5.40;2.00;;;26.40;75.60;;;;;;5065089;28;20021;-51
2021/12/04 09:16:15;;;;;;;5.63;1.80;;;26.40;75.70;;;;;;5064848;28;20378;-56
2021/12/04 09:18:41;;;;;;;8.30;2.55;;;26.30;75.70;;;;;;5064934;28;20024;-53
2021/12/04 09:21:10;;;;;;;4.13;2.00;;;26.40;75.90;;;;;;5064783;28;20085;-52
2021/12/04 09:23:40;;;;;;;6.95;2.60;;;26.40;76.10;;;;;;5064639;28;20044;-54
2021/12/04 09:26:12;;;;;;;6.18;2.15;;;26.30;75.90;;;;;;5064731;28;20013;-54
2021/12/04 09:28:42;;;;;;;8.75;2.30;;;26.30;76.30;;;;;;5064798;28;20020;-56
2021/12/04 09:31:28;;;;;;;4.28;2.20;;;26.30;76.60;;;;;;5064597;28;20345;-56
2021/12/04 09:34:22;;;;;;;6.40;2.22;;;26.30;76.50;;;;;;5064641;28;20028;-51
2021/12/04 09:40:17;;;;;;;4.95;2.45;;;26.30;76.70;;;;;;5064329;28;20033;-53
2021/12/04 10:12:41;;;;;;;7.20;2.50;;;26.10;78.50;;;;;;5063989;28;20364;-51
2021/12/04 10:15:34;;;;;;;10.35;2.80;;;26.10;78.60;;;;;;5063799;28;20084;-51
2021/12/04 10:24:07;;;;;;;8.18;2.35;;;26.00;78.30;;;;;;5063765;28;20244;-53
2021/12/04 10:32:55;;;;;;;8.73;2.40;;;26.00;78.30;;;;;;5063364;28;20032;-51
2021/12/04 10:34:49;;;;;;;6.07;2.53;;;26.00;78.50;;;;;;5059872;28;20040;-51
2021/12/04 10:37:23;;;;;;;10.57;2.65;;;26.00;78.30;;;;;;5064009;28;20032;-53
2021/12/04 10:39:59;;;;;;;7.75;2.22;;;26.00;78.10;;;;;;5063519;28;20079;-53
2021/12/04 10:42:38;;;;;;;7.03;2.30;;;26.00;78.00;;;;;;5063789;28;20020;-55
2021/12/04 10:45:05;;;;;;;7.03;2.17;;;26.00;78.10;;;;;;5063387;28;20248;-52
2021/12/04 10:47:32;;;;;;;7.65;2.60;;;25.90;77.80;;;;;;5063882;28;20017;-53
2021/12/04 10:50:35;;;;;;;4.90;2.20;;;26.00;77.80;;;;;;5067034;28;20313;-57
2021/12/04 10:52:59;;;;;;;10.52;2.63;;;25.90;77.60;;;;;;5067816;28;20088;-53
2021/12/04 10:55:51;;;;;;;5.68;2.33;;;25.90;77.40;;;;;;5067465;28;20028;-54
2021/12/04 10:59:04;;;;;;;7.93;2.63;;;25.90;77.10;;;;;;5067180;28;20075;-52
2021/12/04 11:01:54;;;;;;;9.57;2.42;;;25.90;77.20;;;;;;5067251;28;20041;-50
2021/12/04 11:18:42;;;;;;;8.43;2.95;;;25.90;76.40;;;;;;5067432;28;20027;-51
2021/12/04 11:24:16;;;;;;;7.82;2.70;;;26.00;76.00;;;;;;5066944;28;20062;-50
2021/12/04 11:40:37;;;;;;;14.30;3.80;;;26.10;76.50;;;;;;5066184;28;20028;-47
2021/12/04 11:43:17;;;;;;;9.48;3.13;;;26.20;76.70;;;;;;5067031;28;20028;-51
2021/12/04 11:46:02;;;;;;;12.90;3.55;;;26.20;76.60;;;;;;5066377;28;20028;-53
2021/12/04 11:48:40;;;;;;;9.63;3.08;;;26.20;77.00;;;;;;5065543;28;20029;-53
2021/12/04 11:51:22;;;;;;;15.57;3.00;;;26.20;76.90;;;;;;5065159;28;20088;-52
2021/12/04 11:53:50;;;;;;;12.23;3.50;;;26.20;76.70;;;;;;5066562;28;20025;-53
2021/12/04 11:56:28;;;;;;;11.43;4.22;;;26.30;76.80;;;;;;5066323;28;20025;-54
2021/12/04 11:58:55;;;;;;;90.35;9.90;;;26.30;76.70;;;;;;5065570;28;20048;-56
2021/12/04 12:01:31;;;;;;;57.65;7.53;;;26.30;76.70;;;;;;5065640;28;20059;-52
2021/12/04 12:04:07;;;;;;;27.55;5.00;;;26.40;76.70;;;;;;5066391;28;20029;-54
2021/12/04 12:06:43;;;;;;;25.65;4.97;;;26.40;76.50;;;;;;5066459;28;20025;-51
2021/12/04 12:09:14;;;;;;;25.08;5.47;;;26.40;76.40;;;;;;5066422;28;20021;-51
2021/12/04 12:12:13;;;;;;;17.27;4.53;;;26.40;76.40;;;;;;5066079;28;20109;-53
2021/12/04 12:14:49;;;;;;;19.13;4.05;;;26.50;76.70;;;;;;5050997;28;20032;-56
2021/12/04 12:17:30;;;;;;;13.00;3.55;;;26.50;76.70;;;;;;5066164;28;20051;-54
2021/12/04 12:19:57;;;;;;;11.90;3.72;;;26.50;76.40;;;;;;5066010;28;20048;-55
2021/12/04 12:22:37;;;;;;;14.77;3.53;;;26.60;76.40;;;;;;5066187;28;20084;-54
2021/12/04 12:31:49;;;;;;;12.02;3.67;;;26.60;76.30;;;;;;5046617;28;20033;-53
2021/12/04 12:34:09;;;;;;;9.00;2.85;;;26.70;76.20;;;;;;5065892;28;20091;-53
2021/12/04 12:36:32;;;;;;;10.00;2.88;;;26.70;76.10;;;;;;5065524;28;20033;-54
2021/12/04 12:39:21;;;;;;;6.90;2.83;;;26.70;76.10;;;;;;5065804;28;20025;-54
2021/12/04 12:41:50;;;;;;;6.55;2.65;;;26.70;76.00;;;;;;5065657;28;20068;-53
2021/12/04 12:44:27;;;;;;;9.70;2.80;;;26.80;76.00;;;;;;5065600;28;20036;-52
2021/12/04 12:47:15;;;;;;;8.30;2.72;;;26.80;75.90;;;;;;5065559;28;20047;-55
2021/12/04 12:49:44;;;;;;;8.43;3.00;;;26.80;75.80;;;;;;5065575;28;20017;-57
2021/12/04 12:52:23;;;;;;;7.38;2.30;;;26.80;75.90;;;;;;5065667;28;20182;-51
2021/12/04 12:54:57;;;;;;;7.45;2.60;;;26.90;76.60;;;;;;5065583;28;20021;-56
2021/12/04 12:57:35;;;;;;;6.53;3.00;;;26.90;76.30;;;;;;5065550;28;20021;-55
2021/12/04 13:11:41;;;;;;;7.82;2.55;;;27.00;76.80;;;;;;5064319;28;20240;-55
2021/12/04 13:14:17;;;;;;;9.57;2.78;;;27.00;77.00;;;;;;5064891;28;20047;-53
2021/12/04 13:16:50;;;;;;;6.28;2.65;;;27.10;77.40;;;;;;5064950;28;20323;-51
2021/12/04 13:19:19;;;;;;;5.28;2.95;;;27.10;77.10;;;;;;5064764;28;20024;-53
2021/12/04 13:21:51;;;;;;;11.80;4.07;;;27.10;77.20;;;;;;5064975;28;20025;-52
2021/12/04 13:24:22;;;;;;;8.77;3.07;;;27.10;77.40;;;;;;5064960;28;20016;-54
2021/12/04 13:26:52;;;;;;;7.75;2.60;;;27.10;77.70;;;;;;5064793;28;20290;-58
2021/12/04 13:29:23;;;;;;;11.50;2.90;;;27.20;78.10;;;;;;5064763;28;20021;-53
2021/12/04 13:31:57;;;;;;;10.40;2.60;;;27.20;77.60;;;;;;5064886;28;20028;-53
2021/12/04 13:34:29;;;;;;;10.43;2.70;;;27.20;77.80;;;;;;5064193;28;20080;-53
2021/12/04 13:36:58;;;;;;;7.32;2.72;;;27.20;77.80;;;;;;5063457;28;20028;-52
2021/12/04 13:39:26;;;;;;;11.95;2.50;;;27.20;77.70;;;;;;5064360;28;20028;-56
2021/12/04 13:41:54;;;;;;;11.38;2.67;;;27.20;77.70;;;;;;5063512;28;20021;-54
2021/12/04 13:44:25;;;;;;;5.88;2.53;;;27.20;77.70;;;;;;5064455;28;20017;-55
2021/12/04 13:47:03;;;;;;;6.15;2.15;;;27.20;77.80;;;;;;5063316;28;20328;-58
2021/12/04 13:49:33;;;;;;;10.40;3.00;;;27.30;77.80;;;;;;5064367;28;20025;-57
2021/12/04 13:52:07;;;;;;;8.82;2.80;;;27.30;78.40;;;;;;5063866;28;20028;-60
2021/12/04 13:54:42;;;;;;;8.73;2.83;;;27.30;78.20;;;;;;5064556;28;20016;-60
2021/12/04 13:57:13;;;;;;;6.25;2.67;;;27.30;78.90;;;;;;5064058;28;20052;-56
2021/12/04 13:59:41;;;;;;;7.80;2.60;;;27.30;79.00;;;;;;5064085;28;20041;-53
2021/12/04 14:02:22;;;;;;;8.55;2.58;;;27.30;79.10;;;;;;5064466;28;20029;-53
2021/12/04 14:05:01;;;;;;;6.93;2.67;;;27.30;78.80;;;;;;5064130;28;20080;-57
2021/12/04 14:07:28;;;;;;;14.55;2.47;;;27.30;79.20;;;;;;5064568;28;20359;-51
2021/12/04 14:09:56;;;;;;;10.70;2.75;;;27.40;79.50;;;;;;5063922;28;20040;-53
2021/12/04 14:12:23;;;;;;;11.50;2.75;;;27.40;79.60;;;;;;5064283;28;20070;-53
2021/12/04 14:14:50;;;;;;;8.65;2.75;;;27.40;79.70;;;;;;5063099;28;20075;-52
2021/12/04 14:17:18;;;;;;;7.90;2.70;;;27.40;79.60;;;;;;5063420;28;20036;-53
2021/12/04 14:19:46;;;;;;;9.23;2.47;;;27.40;79.40;;;;;;5062643;28;20025;-52
2021/12/04 14:22:17;;;;;;;10.48;2.50;;;27.40;79.50;;;;;;5062692;28;20027;-55
2021/12/04 14:25:01;;;;;;;7.45;2.30;;;27.40;79.80;;;;;;5063465;28;20197;-54
2021/12/04 14:27:32;;;;;;;12.18;2.97;;;27.40;79.60;;;;;;5062582;28;20028;-51
2021/12/04 14:30:21;;;;;;;10.97;2.83;;;27.50;79.90;;;;;;5062969;28;20031;-56
2021/12/04 14:32:53;;;;;;;8.95;2.83;;;27.50;79.80;;;;;;5062949;28;20045;-54
2021/12/04 14:35:23;;;;;;;11.88;2.80;;;27.50;80.20;;;;;;5043703;28;20342;-52
2021/12/04 14:37:55;;;;;;;11.40;3.05;;;27.60;80.10;;;;;;5044315;28;20037;-52
2021/12/04 14:40:31;;;;;;;6.80;2.50;;;27.50;80.00;;;;;;5043549;28;20092;-53
2021/12/04 14:42:59;;;;;;;12.82;2.70;;;27.60;80.10;;;;;;5049234;28;20051;-57
2021/12/04 14:45:31;;;;;;;9.80;2.70;;;27.60;80.00;;;;;;5061149;28;20102;-53
2021/12/04 14:48:02;;;;;;;7.40;2.13;;;27.60;80.90;;;;;;5063986;28;20036;-51
2021/12/04 14:50:30;;;;;;;10.50;3.25;;;27.60;80.10;;;;;;5063610;28;20024;-53
2021/12/04 14:53:00;;;;;;;9.80;3.10;;;27.70;79.90;;;;;;5063957;28;20244;-53
2021/12/04 14:55:32;;;;;;;8.40;3.33;;;27.70;79.90;;;;;;5062276;28;20105;-49
2021/12/04 14:57:59;;;;;;;10.70;3.03;;;27.70;79.40;;;;;;5063350;28;20309;-55
2021/12/04 15:00:30;;;;;;;9.02;2.75;;;27.80;79.00;;;;;;5063216;28;20108;-52
2021/12/04 15:03:18;;;;;;;12.25;2.88;;;27.80;78.90;;;;;;5064066;28;20024;-55
2021/12/04 15:05:51;;;;;;;9.18;3.20;;;27.80;78.80;;;;;;5063403;28;20013;-50
2021/12/04 15:08:22;;;;;;;9.35;2.88;;;27.80;78.60;;;;;;5063539;28;20031;-49
2021/12/04 15:10:56;;;;;;;6.88;2.80;;;27.90;78.60;;;;;;5062858;28;20029;-55
2021/12/04 15:13:26;;;;;;;10.88;3.63;;;27.90;78.10;;;;;;5062421;28;20021;-52
2021/12/04 15:15:53;;;;;;;10.60;3.17;;;27.90;78.30;;;;;;5062828;28;20024;-50
2021/12/04 15:18:24;;;;;;;7.13;3.20;;;27.90;78.40;;;;;;5061530;28;20032;-50
2021/12/04 15:20:56;;;;;;;6.22;2.80;;;27.90;78.60;;;;;;5063265;28;20025;-54
2021/12/04 15:23:25;;;;;;;7.68;2.70;;;28.00;78.80;;;;;;5063442;28;20220;-53
2021/12/04 15:25:55;;;;;;;6.90;2.97;;;28.00;78.70;;;;;;5063139;28;20025;-55
2021/12/04 15:28:25;;;;;;;6.88;3.08;;;28.00;78.70;;;;;;5063220;28;20017;-51
2021/12/04 15:30:55;;;;;;;7.07;2.90;;;28.00;78.70;;;;;;5063049;28;20067;-51
2021/12/04 15:33:27;;;;;;;8.80;3.38;;;28.00;78.60;;;;;;5063255;28;20040;-51
2021/12/04 15:35:55;;;;;;;7.65;2.83;;;28.10;78.60;;;;;;5066059;28;20380;-52